createdAt,value
2023-02-26T00:03:33.559Z,78.33
2023-02-26T00:08:36.530Z,78.19
2023-02-26T00:13:46.094Z,78.23
2023-02-26T00:18:48.286Z,78.35
2023-02-26T00:23:50.573Z,78.46
2023-02-26T00:28:56.239Z,78.22
2023-02-26T00:33:58.880Z,78.37
2023-02-26T00:39:13.369Z,78.48
2023-02-26T00:44:15.545Z,78.19
2023-02-26T00:49:54.586Z,78.06
2023-02-26T00:54:56.494Z,77.94
2023-02-26T00:59:58.380Z,78.05
2023-02-26T01:05:01.322Z,78.22
2023-02-26T01:10:04.146Z,78.35
2023-02-26T01:15:07.719Z,78.24
2023-02-26T01:20:31.353Z,78.15
2023-02-26T01:25:43.766Z,77.92
2023-02-26T01:30:47.018Z,78.05
2023-02-26T01:35:54.870Z,78.10
2023-02-26T01:41:12.982Z,78.11
2023-02-26T01:46:49.235Z,78.34
2023-02-26T01:51:55.920Z,78.28
2023-02-26T01:57:08.707Z,78.26
2023-02-26T02:02:16.444Z,78.28
2023-02-26T02:07:19.123Z,77.86
2023-02-26T02:12:41.336Z,78.29
2023-02-26T02:17:51.956Z,78.20
2023-02-26T02:23:02.629Z,78.18
2023-02-26T02:28:36.618Z,78.18
2023-02-26T02:33:51.610Z,78.33
2023-02-26T02:38:59.791Z,78.34
2023-02-26T02:44:06.819Z,78.58
2023-02-26T02:49:38.879Z,78.33
2023-02-26T02:54:49.277Z,78.40
2023-02-26T03:00:13.744Z,78.36
2023-02-26T03:05:17.754Z,78.09
2023-02-26T03:10:20.326Z,78.52
2023-02-26T03:15:35.502Z,78.37
2023-02-26T03:20:49.928Z,78.40
2023-02-26T03:26:19.203Z,78.55
2023-02-26T03:31:54.073Z,78.42
2023-02-26T03:37:13.557Z,78.54
2023-02-26T03:42:43.354Z,78.59
2023-02-26T03:47:54.132Z,78.46
2023-02-26T03:53:01.157Z,78.54
2023-02-26T03:58:14.417Z,78.50
2023-02-26T04:03:46.519Z,78.46
2023-02-26T04:08:48.880Z,78.50
2023-02-26T04:13:50.862Z,78.52
2023-02-26T04:18:53.975Z,78.60
2023-02-26T04:23:55.959Z,78.64
2023-02-26T04:28:57.828Z,78.40
2023-02-26T04:34:00.672Z,78.65
2023-02-26T04:39:03.178Z,78.57
2023-02-26T04:44:06.939Z,78.48
2023-02-26T04:49:11.046Z,78.65
2023-02-26T04:54:19.226Z,78.68
2023-02-26T04:59:21.202Z,78.55
2023-02-26T05:04:23.228Z,78.74
2023-02-26T05:09:32.953Z,78.76
2023-02-26T05:14:35.407Z,78.47
2023-02-26T05:19:37.263Z,78.55
2023-02-26T05:24:40.303Z,78.55
2023-02-26T05:29:45.180Z,78.56
2023-02-26T05:34:49.176Z,78.57
2023-02-26T05:39:51.063Z,78.51
2023-02-26T05:44:52.952Z,78.56
2023-02-26T05:49:54.709Z,78.68
2023-02-26T05:54:56.453Z,78.64
2023-02-26T05:59:58.229Z,78.61
2023-02-26T06:05:00.116Z,78.65
2023-02-26T06:10:01.894Z,78.44
2023-02-26T06:15:05.261Z,78.87
2023-02-26T06:20:07.808Z,78.70
2023-02-26T06:25:09.990Z,78.25
2023-02-26T06:30:12.294Z,78.66
2023-02-26T06:35:14.885Z,78.75
2023-02-26T06:40:16.845Z,78.76
2023-02-26T06:45:18.747Z,78.58
2023-02-26T06:50:20.557Z,78.67
2023-02-26T06:55:26.955Z,78.65
2023-02-26T07:00:28.914Z,78.70
2023-02-26T07:05:30.959Z,78.71
2023-02-26T07:10:33.926Z,78.77
2023-02-26T07:15:35.777Z,78.56
2023-02-26T07:20:37.865Z,78.74
2023-02-26T07:25:39.693Z,78.84
2023-02-26T07:30:43.015Z,78.44
2023-02-26T07:35:45.098Z,78.65
2023-02-26T07:40:48.001Z,78.69
2023-02-26T07:45:52.111Z,78.77
2023-02-26T07:50:55.036Z,78.76
2023-02-26T07:55:57.076Z,78.59
2023-02-26T08:00:59.008Z,78.48
2023-02-26T08:06:03.355Z,78.50
2023-02-26T08:11:05.497Z,78.36
2023-02-26T08:16:07.447Z,78.77
2023-02-26T08:21:09.414Z,78.62
2023-02-26T08:26:13.703Z,78.65
2023-02-26T08:31:16.419Z,78.49
2023-02-26T08:36:18.309Z,78.61
2023-02-26T08:41:20.194Z,78.79
2023-02-26T08:46:22.293Z,78.68
2023-02-26T08:51:24.580Z,78.76
2023-02-26T08:56:27.285Z,78.69
2023-02-26T09:01:29.941Z,78.38
2023-02-26T09:06:32.218Z,78.29
2023-02-26T09:11:34.921Z,78.09
2023-02-26T09:16:37.190Z,78.48
2023-02-26T09:21:39.509Z,78.60
2023-02-26T09:26:41.328Z,78.49
2023-02-26T09:31:43.344Z,78.46
2023-02-26T09:36:46.906Z,78.25
2023-02-26T09:41:54.703Z,78.02
2023-02-26T09:47:14.745Z,78.17
2023-02-26T09:52:24.565Z,78.02
2023-02-26T09:57:43.299Z,78.15
2023-02-26T10:03:06.350Z,78.24
2023-02-26T10:08:19.996Z,77.82
2023-02-26T10:13:56.589Z,77.66
2023-02-26T10:19:05.725Z,77.69
2023-02-26T10:24:25.856Z,77.73
2023-02-26T10:29:33.339Z,77.69
2023-02-26T10:34:45.071Z,77.67
2023-02-26T10:40:16.186Z,77.14
2023-02-26T10:45:51.135Z,77.20
2023-02-26T10:50:58.440Z,77.21
2023-02-26T10:56:04.740Z,77.19
2023-02-26T11:01:16.262Z,77.10
2023-02-26T11:06:24.412Z,76.59
2023-02-26T11:11:55.639Z,76.64
2023-02-26T11:17:01.339Z,76.61
2023-02-26T11:22:05.464Z,76.13
2023-02-26T11:27:14.322Z,76.02
2023-02-26T11:32:20.253Z,75.90
2023-02-26T11:37:39.968Z,76.13
2023-02-26T11:43:05.221Z,76.05
2023-02-26T11:48:11.933Z,76.35
2023-02-26T11:53:32.091Z,76.18
2023-02-26T11:58:37.998Z,76.03
2023-02-26T12:03:46.327Z,76.05
2023-02-26T12:08:48.859Z,75.49
2023-02-26T12:13:50.646Z,76.02
2023-02-26T12:18:56.711Z,75.86
2023-02-26T12:24:29.374Z,75.75
2023-02-26T12:29:31.124Z,75.72
2023-02-26T12:35:12.547Z,75.41
2023-02-26T12:40:31.124Z,75.16
2023-02-26T12:45:54.770Z,75.79
2023-02-26T12:51:20.874Z,75.45
2023-02-26T12:56:46.951Z,75.21
2023-02-26T13:02:27.628Z,74.81
2023-02-26T13:07:59.639Z,74.78
2023-02-26T13:13:32.044Z,74.78
2023-02-26T13:18:52.213Z,74.76
2023-02-26T13:23:56.712Z,74.86
2023-02-26T13:29:05.510Z,74.86
2023-02-26T13:34:15.789Z,74.81
2023-02-26T13:39:36.387Z,74.82
2023-02-26T13:45:08.717Z,74.56
2023-02-26T13:50:35.212Z,74.79
2023-02-26T13:55:48.772Z,74.27
2023-02-26T14:01:05.687Z,74.06
2023-02-26T14:06:09.775Z,74.35
2023-02-26T14:11:17.590Z,74.46
2023-02-26T14:16:24.185Z,74.55
2023-02-26T14:21:52.084Z,74.34
2023-02-26T14:27:12.213Z,74.66
2023-02-26T14:32:26.347Z,74.79
2023-02-26T14:37:29.076Z,74.54
2023-02-26T14:42:30.957Z,74.67
2023-02-26T14:47:32.986Z,74.53
2023-02-26T14:52:50.765Z,74.69
2023-02-26T14:58:01.734Z,75.02
2023-02-26T15:03:15.631Z,74.91
2023-02-26T15:08:26.244Z,74.92
2023-02-26T15:14:09.851Z,74.86
2023-02-26T15:20:02.614Z,75.05
2023-02-26T15:25:15.050Z,74.91
2023-02-26T15:30:18.021Z,75.32
2023-02-26T15:35:23.278Z,76.15
2023-02-26T15:40:27.233Z,76.37
2023-02-26T15:45:37.494Z,76.10
2023-02-26T15:50:43.234Z,75.69
2023-02-26T15:55:53.332Z,75.67
2023-02-26T16:00:56.416Z,75.54
2023-02-26T16:05:59.529Z,75.28
2023-02-26T16:11:02.228Z,75.27
2023-02-26T16:16:30.318Z,75.27
2023-02-26T16:21:36.030Z,75.21
2023-02-26T16:26:41.979Z,75.29
2023-02-26T16:31:52.094Z,75.42
2023-02-26T16:36:54.640Z,75.47
2023-02-26T16:42:17.145Z,75.50
2023-02-26T16:47:20.583Z,75.54
2023-02-26T16:52:28.811Z,75.56
2023-02-26T16:57:42.334Z,75.59
2023-02-26T17:02:48.057Z,75.53
2023-02-26T17:07:58.416Z,75.49
2023-02-26T17:13:31.458Z,75.53
2023-02-26T17:18:34.085Z,75.64
2023-02-26T17:23:38.958Z,75.62
2023-02-26T17:28:43.337Z,75.54
2023-02-26T17:33:45.816Z,75.58
2023-02-26T17:38:48.879Z,75.49
2023-02-26T17:43:51.148Z,75.46
2023-02-26T17:48:53.224Z,75.68
2023-02-26T17:53:55.083Z,75.60
2023-02-26T17:58:58.897Z,75.77
2023-02-26T18:04:01.562Z,75.67
2023-02-26T18:09:05.996Z,75.77
2023-02-26T18:14:08.869Z,75.84
2023-02-26T18:19:14.424Z,75.92
2023-02-26T18:24:16.330Z,75.66
2023-02-26T18:29:18.234Z,75.83
2023-02-26T18:34:20.093Z,75.72
2023-02-26T18:39:22.051Z,75.81
2023-02-26T18:44:24.410Z,75.72
2023-02-26T18:49:27.635Z,75.49
2023-02-26T18:54:29.559Z,75.61
2023-02-26T18:59:33.785Z,75.75
2023-02-26T19:04:35.833Z,75.64
2023-02-26T19:09:37.896Z,75.70
2023-02-26T19:14:39.877Z,75.54
2023-02-26T19:19:42.570Z,75.42
2023-02-26T19:24:44.677Z,75.68
2023-02-26T19:29:46.702Z,75.71
2023-02-26T19:34:48.447Z,75.59
2023-02-26T19:39:50.302Z,75.73
2023-02-26T19:44:52.323Z,75.74
2023-02-26T19:49:54.165Z,75.50
2023-02-26T19:54:55.958Z,75.67
2023-02-26T19:59:59.562Z,75.52
2023-02-26T20:05:01.443Z,75.66
2023-02-26T20:10:04.144Z,75.48
2023-02-26T20:15:08.455Z,75.39
2023-02-26T20:20:11.355Z,75.67
2023-02-26T20:25:14.957Z,75.34
2023-02-26T20:30:20.412Z,75.41
2023-02-26T20:35:22.265Z,75.33
2023-02-26T20:40:24.148Z,75.36
2023-02-26T20:45:27.426Z,75.34
2023-02-26T20:50:29.475Z,75.08
2023-02-26T20:55:31.859Z,75.04
2023-02-26T21:00:33.740Z,74.92
2023-02-26T21:05:36.147Z,74.99
2023-02-26T21:10:38.674Z,74.97
2023-02-26T21:15:40.594Z,75.14
2023-02-26T21:20:42.384Z,74.88
2023-02-26T21:25:44.534Z,74.80
2023-02-26T21:30:46.429Z,74.71
2023-02-26T21:35:52.664Z,74.63
2023-02-26T21:40:54.798Z,74.80
2023-02-26T21:45:56.682Z,74.70
2023-02-26T21:51:00.035Z,74.67
2023-02-26T21:56:02.204Z,74.43
2023-02-26T22:01:04.867Z,74.28
2023-02-26T22:06:06.939Z,74.24
2023-02-26T22:11:08.976Z,74.19
2023-02-26T22:16:10.793Z,74.04
2023-02-26T22:21:12.700Z,74.00
2023-02-26T22:26:14.524Z,74.07
2023-02-26T22:31:16.652Z,73.85
2023-02-26T22:36:18.510Z,73.85
2023-02-26T22:41:20.450Z,73.65
2023-02-26T22:46:24.596Z,73.65
2023-02-26T22:51:28.453Z,73.65
2023-02-26T22:56:31.048Z,73.59
2023-02-26T23:01:32.857Z,73.59
2023-02-26T23:06:36.650Z,73.57
2023-02-26T23:11:38.501Z,73.61
2023-02-26T23:16:40.931Z,73.39
2023-02-26T23:21:42.820Z,73.42
2023-02-26T23:26:44.914Z,73.41
2023-02-26T23:31:46.848Z,73.28
2023-02-26T23:36:49.139Z,73.37
2023-02-26T23:41:50.951Z,73.38
2023-02-26T23:46:52.980Z,73.29
2023-02-26T23:51:54.811Z,73.29
2023-02-26T23:56:56.722Z,73.21
